East Dulwich, United Kingdom
Current Conditions -  °F | °C
As of 8:20 PM on Wednesday 28 Jan 2015 (Local Time) from EGLC Reporting Station
Clear Clear  
Wind Chill: 31°   Ceiling: Unl
Heat Index: 39°   Visibility: 6mi
Dew Point: 27°   Wind: 15mph
Humidity: 61%   Direction: 250°WSW
Pressure: 29.56"   Gusts: NA
Location:  51.45°N, 0.07°W
Report Text: EGLC 282020Z 25013KT CAVOK 04/M03 Q1001
Loading
Personal Weather Stations






























Interactive Weather Map New forecast layout! Learn more

10-Day Weather Forecast

Advertisements
Track Severe Weather on mobile